Time;durP1;ratioP1;P1;durP2;ratioP2;P2;SDS_P1;SDS_P2;PMS_P1;PMS_P2;Temp;Humidity;BMP_temperature;BMP_pressure;BME280_temperature;BME280_humidity;BME280_pressure;Samples;Min_cycle;Max_cycle;Signal;HPM_P1;HPM_P2
2021/10/30 00:02:15;;;;;;;18.40;8.90;;;;;;;6.73;65.14;100038.91;4842616;29;20075;-60
2021/10/30 00:04:44;;;;;;;19.70;8.90;;;;;;;6.70;64.92;100044.78;4846754;29;20042;-60
2021/10/30 00:07:15;;;;;;;19.48;9.82;;;;;;;6.62;64.99;100036.16;4854773;29;20045;-60
2021/10/30 00:09:44;;;;;;;17.63;8.88;;;;;;;6.61;65.00;100038.66;4843149;29;20434;-60
2021/10/30 00:12:13;;;;;;;19.33;9.32;;;;;;;6.51;65.49;100047.75;4844480;29;20137;-61
2021/10/30 00:14:44;;;;;;;19.27;10.15;;;;;;;6.44;65.96;100040.84;4851448;29;20057;-61
2021/10/30 00:17:17;;;;;;;18.45;9.73;;;;;;;6.39;65.87;100044.09;4879709;29;20060;-60
2021/10/30 00:19:49;;;;;;;20.65;9.80;;;;;;;6.36;66.15;100041.53;4865518;29;20053;-60
2021/10/30 00:22:22;;;;;;;16.13;8.77;;;;;;;6.42;66.16;100042.50;4885384;29;20105;-60
2021/10/30 00:24:51;;;;;;;19.13;8.82;;;;;;;6.37;66.28;100046.63;4887785;29;20049;-60
2021/10/30 00:27:21;;;;;;;17.85;9.52;;;;;;;6.32;66.31;100039.72;4885895;29;20059;-60
2021/10/30 00:29:51;;;;;;;18.75;9.43;;;;;;;6.28;66.38;100033.75;4885902;29;20053;-60
2021/10/30 00:32:24;;;;;;;18.60;8.10;;;;;;;6.22;66.16;100033.59;4887915;29;20075;-60
2021/10/30 00:34:53;;;;;;;19.33;9.20;;;;;;;6.24;66.64;100042.09;4885814;29;20049;-60
2021/10/30 00:37:23;;;;;;;16.63;8.65;;;;;;;6.23;66.53;100034.47;4885715;29;20133;-60
2021/10/30 00:39:55;;;;;;;;;;;;;;;6.19;66.68;100031.00;4886203;29;20555;-60
2021/10/30 00:42:28;;;;;;;16.65;8.13;;;;;;;6.09;66.88;100037.53;4896867;29;19923;-60
2021/10/30 00:45:02;;;;;;;16.70;8.43;;;;;;;6.09;66.84;100046.84;4904437;29;20047;-60
2021/10/30 00:47:31;;;;;;;18.88;8.75;;;;;;;6.11;66.95;100039.25;4904839;29;20053;-60
2021/10/30 00:50:01;;;;;;;19.70;8.82;;;;;;;6.10;67.10;100040.94;4904456;29;20049;-60
2021/10/30 00:52:30;;;;;;;19.38;9.52;;;;;;;6.04;67.23;100038.28;4894836;29;20049;-61
2021/10/30 00:55:04;;;;;;;15.45;8.15;;;;;;;6.03;67.25;100041.59;4885599;29;20059;-60
2021/10/30 00:57:40;;;;;;;16.85;9.02;;;;;;;6.00;67.61;100037.31;4861445;29;20048;-60
2021/10/30 01:00:14;;;;;;;15.93;8.50;;;;;;;6.02;67.21;100029.78;4890182;29;20059;-60
2021/10/30 01:02:46;;;;;;;17.02;9.75;;;;;;;6.05;67.04;100034.91;4896532;29;20135;-60
2021/10/30 01:05:16;;;;;;;17.88;8.75;;;;;;;6.08;67.30;100019.78;4888181;29;20097;-61
2021/10/30 01:07:50;;;;;;;17.70;9.27;;;;;;;6.10;67.16;100025.72;4885288;29;20452;-60
2021/10/30 01:10:23;;;;;;;20.05;9.40;;;;;;;5.92;66.98;100027.84;4885444;29;20444;-60
2021/10/30 01:12:53;;;;;;;16.10;8.45;;;;;;;5.87;67.71;100024.34;4885363;29;20077;-60
2021/10/30 01:15:24;;;;;;;21.23;9.63;;;;;;;5.78;67.74;100019.03;4888620;29;20064;-60
2021/10/30 01:17:53;;;;;;;15.38;8.02;;;;;;;5.98;67.66;100012.78;4897304;29;20045;-61
2021/10/30 01:20:26;;;;;;;14.27;6.45;;;;;;;5.99;67.23;100014.50;4899980;29;20169;-60
2021/10/30 01:23:03;;;;;;;18.90;8.85;;;;;;;5.97;67.30;100023.75;4899685;29;20132;-61
2021/10/30 01:25:33;;;;;;;14.65;7.97;;;;;;;5.96;67.44;100020.34;4886957;29;20057;-61
2021/10/30 01:28:02;;;;;;;15.10;8.30;;;;;;;5.93;67.58;100014.34;4886955;29;20383;-61
2021/10/30 01:30:31;;;;;;;13.65;8.48;;;;;;;5.93;67.53;100024.47;4888355;29;20392;-61
2021/10/30 01:33:03;;;;;;;19.20;8.10;;;;;;;5.94;67.95;100016.94;4884871;29;20045;-60
2021/10/30 01:35:38;;;;;;;16.92;8.38;;;;;;;5.97;67.87;100014.44;4878541;29;20045;-60
2021/10/30 01:38:12;;;;;;;14.38;7.82;;;;;;;5.90;67.70;99994.03;4895439;29;20136;-60
2021/10/30 01:40:43;;;;;;;17.73;8.30;;;;;;;6.07;67.53;100010.44;4883526;29;20110;-60
2021/10/30 01:43:14;;;;;;;16.95;8.00;;;;;;;6.12;67.80;100001.28;4900990;29;20048;-60
2021/10/30 01:45:46;;;;;;;16.17;7.75;;;;;;;6.85;67.38;100007.88;4901223;29;20108;-60
2021/10/30 01:48:18;;;;;;;14.75;7.03;;;;;;;7.57;66.11;99999.03;4901225;29;20052;-61
2021/10/30 01:50:53;;;;;;;12.95;6.38;;;;;;;8.29;64.29;99998.44;4888025;29;20097;-60
2021/10/30 01:53:24;;;;;;;11.27;6.35;;;;;;;9.53;61.23;100000.66;4887371;29;20048;-61
2021/10/30 01:55:54;;;;;;;11.32;6.53;;;;;;;10.13;58.69;99986.66;4900748;29;20060;-60
2021/10/30 01:58:26;;;;;;;;;;;;;;;10.54;57.37;99983.50;4901361;29;20092;-61
2021/10/30 02:00:56;;;;;;;13.40;7.57;;;;;;;11.10;55.37;99985.38;4882809;29;19974;-60
2021/10/30 02:03:31;;;;;;;17.50;7.35;;;;;;;11.34;54.16;99985.41;4881929;29;20059;-60
2021/10/30 02:06:04;;;;;;;15.30;7.47;;;;;;;11.57;52.93;99993.94;4882198;29;20048;-60
2021/10/30 02:08:34;;;;;;;12.40;7.20;;;;;;;11.95;51.74;99984.56;4893850;29;20044;-60
2021/10/30 02:11:04;;;;;;;14.50;7.47;;;;;;;12.01;51.27;99987.13;4882034;29;20048;-60
2021/10/30 02:13:33;;;;;;;13.57;6.93;;;;;;;11.95;51.00;99976.03;4881248;29;20105;-60
2021/10/30 02:16:02;;;;;;;12.73;7.53;;;;;;;11.98;50.86;99976.91;4887698;29;20068;-60
2021/10/30 02:18:31;;;;;;;15.23;7.60;;;;;;;12.02;50.56;99986.25;4882323;29;20279;-60
2021/10/30 02:21:02;;;;;;;13.45;7.55;;;;;;;12.04;50.39;99979.44;4887372;29;20100;-60
2021/10/30 02:23:35;;;;;;;12.55;7.45;;;;;;;11.98;50.36;99965.81;4882637;29;20048;-61
2021/10/30 02:26:04;;;;;;;16.05;7.45;;;;;;;11.90;50.59;99981.16;4889594;29;20045;-61
2021/10/30 02:28:37;;;;;;;14.68;8.18;;;;;;;12.05;50.26;99972.63;4883915;29;20128;-64
2021/10/30 02:31:06;;;;;;;14.75;8.07;;;;;;;11.97;50.45;99959.00;4881169;29;20052;-60
2021/10/30 02:33:39;;;;;;;12.45;7.50;;;;;;;12.08;50.16;99977.72;4879711;29;20110;-60
2021/10/30 02:36:10;;;;;;;12.70;7.45;;;;;;;12.18;49.98;99952.97;4879979;29;20044;-61
2021/10/30 02:38:39;;;;;;;17.65;8.05;;;;;;;12.21;49.98;99953.81;4880570;29;20128;-60
2021/10/30 02:41:08;;;;;;;12.57;7.32;;;;;;;12.22;49.97;99949.53;4880649;29;20117;-60
2021/10/30 02:43:41;;;;;;;12.88;7.07;;;;;;;12.23;49.66;99951.25;4881053;29;20056;-60
2021/10/30 02:46:10;;;;;;;15.38;9.15;;;;;;;12.26;49.82;99946.13;4888309;29;20101;-61
2021/10/30 02:48:43;;;;;;;13.55;7.72;;;;;;;12.19;49.97;99945.28;4880097;29;20079;-60
2021/10/30 02:51:14;;;;;;;13.93;8.05;;;;;;;12.12;50.01;99942.78;4878710;29;20115;-61
2021/10/30 02:53:48;;;;;;;12.73;7.10;;;;;;;12.12;50.07;99942.78;4888228;29;20429;-60
2021/10/30 02:56:21;;;;;;;14.07;7.57;;;;;;;12.07;50.20;99943.63;4885769;29;20049;-60
2021/10/30 02:58:53;;;;;;;12.00;6.57;;;;;;;12.06;50.30;99939.38;4884298;29;20548;-60
2021/10/30 03:01:23;;;;;;;13.20;5.97;;;;;;;12.13;50.14;99941.91;4880238;29;20057;-63
2021/10/30 03:03:52;;;;;;;;;;;;;;;12.10;50.43;99948.72;4880335;29;20048;-62
2021/10/30 03:06:28;;;;;;;14.00;7.25;;;;;;;12.09;50.24;99954.69;4880280;29;20319;-60
2021/10/30 03:09:00;;;;;;;14.68;6.70;;;;;;;12.14;50.15;99961.53;4880226;29;20073;-60
2021/10/30 03:11:31;;;;;;;15.73;7.65;;;;;;;12.24;49.92;99955.53;4880604;29;20045;-60
2021/10/30 03:14:01;;;;;;;12.68;7.90;;;;;;;12.29;49.77;99956.34;4880453;29;20045;-61
2021/10/30 03:16:30;;;;;;;14.47;8.10;;;;;;;12.27;49.94;99947.81;4892338;29;20068;-61
2021/10/30 03:19:02;;;;;;;11.40;6.63;;;;;;;12.27;49.86;99947.81;4891710;29;20059;-60
2021/10/30 03:21:33;;;;;;;12.15;7.50;;;;;;;12.27;49.86;99947.81;4891413;29;20131;-61
2021/10/30 03:24:06;;;;;;;11.95;6.93;;;;;;;12.30;49.95;99952.94;4886846;29;20049;-61
2021/10/30 03:26:36;;;;;;;13.18;7.38;;;;;;;12.31;49.80;99952.09;4880775;29;20048;-60
2021/10/30 03:29:08;;;;;;;14.45;7.47;;;;;;;12.31;49.87;99954.66;4881630;29;20043;-61
2021/10/30 03:31:39;;;;;;;14.18;7.47;;;;;;;12.33;49.79;99952.94;4880989;29;20045;-60
2021/10/30 03:34:08;;;;;;;14.02;7.45;;;;;;;12.36;49.56;99953.75;4881152;29;20052;-60
2021/10/30 03:36:42;;;;;;;15.15;7.63;;;;;;;12.35;49.66;99956.34;4879774;29;20128;-61
2021/10/30 03:39:14;;;;;;;15.35;8.00;;;;;;;12.35;49.57;99951.22;4879709;29;20045;-60
2021/10/30 03:41:43;;;;;;;13.63;7.03;;;;;;;12.30;49.58;99951.22;4879945;29;20071;-61
2021/10/30 03:44:13;;;;;;;14.65;7.82;;;;;;;12.28;49.79;99944.41;4879859;29;20462;-62
2021/10/30 03:46:42;;;;;;;13.60;7.07;;;;;;;12.25;49.97;99944.41;4885849;29;20048;-60
2021/10/30 03:49:12;;;;;;;13.95;7.72;;;;;;;12.31;49.67;99949.53;4882977;29;20171;-60
2021/10/30 03:51:48;;;;;;;14.38;7.13;;;;;;;12.28;49.95;99949.53;4879408;29;20048;-61
2021/10/30 03:54:20;;;;;;;12.57;7.07;;;;;;;12.21;49.91;99947.84;4880952;29;20441;-60
2021/10/30 03:56:58;;;;;;;15.10;7.28;;;;;;;12.22;49.90;99944.41;4879354;29;20791;-60
2021/10/30 03:59:27;;;;;;;12.23;6.80;;;;;;;12.26;49.74;99951.25;4878960;29;20045;-64
2021/10/30 04:02:06;;;;;;;13.27;7.40;;;;;;;12.35;49.68;99951.22;4889975;29;20056;-60
2021/10/30 04:04:35;;;;;;;12.10;7.03;;;;;;;12.42;49.66;99932.41;4878553;29;20076;-61
2021/10/30 04:07:09;;;;;;;12.25;7.03;;;;;;;12.40;49.76;99944.38;4884249;29;20040;-60
2021/10/30 04:09:41;;;;;;;14.98;7.20;;;;;;;12.41;49.61;99941.78;4879011;29;20057;-61
2021/10/30 04:12:13;;;;;;;13.15;6.78;;;;;;;12.41;49.72;99946.06;4878944;29;20051;-60
2021/10/30 04:14:43;;;;;;;13.43;7.00;;;;;;;12.38;49.75;99946.09;4878037;29;20077;-61
2021/10/30 04:17:12;;;;;;;12.15;6.70;;;;;;;12.38;49.74;99948.66;4884287;29;20428;-62
2021/10/30 04:19:41;;;;;;;11.35;7.00;;;;;;;12.40;49.70;99952.06;4891960;29;20043;-61
2021/10/30 04:22:12;;;;;;;13.38;7.40;;;;;;;12.32;49.92;99946.09;4882682;29;20037;-61
2021/10/30 04:24:45;;;;;;;12.13;6.90;;;;;;;12.27;50.14;99952.94;4895204;29;20059;-60
2021/10/30 04:27:13;;;;;;;13.82;7.50;;;;;;;12.19;50.42;99942.72;4892330;29;20075;-60
2021/10/30 04:29:45;;;;;;;12.18;7.07;;;;;;;12.22;50.61;99950.41;4888300;29;20048;-60
2021/10/30 04:32:16;;;;;;;12.25;7.32;;;;;;;12.28;50.54;99949.53;4882167;29;20049;-60
2021/10/30 04:34:47;;;;;;;12.02;6.80;;;;;;;12.28;50.56;99945.28;4895739;29;20060;-60
2021/10/30 04:37:19;;;;;;;11.93;7.15;;;;;;;12.24;50.76;99945.28;4890314;29;20101;-61
2021/10/30 04:39:51;;;;;;;14.80;7.43;;;;;;;12.15;50.83;99937.63;4878744;29;20057;-61
2021/10/30 04:42:21;;;;;;;12.80;6.90;;;;;;;12.03;50.96;99934.25;4878530;29;20041;-60
2021/10/30 04:44:50;;;;;;;14.40;8.25;;;;;;;12.00;51.24;99939.38;4879863;29;20440;-60
2021/10/30 04:47:20;;;;;;;13.00;7.85;;;;;;;11.99;51.39;99937.69;4877905;29;20052;-63
2021/10/30 04:49:50;;;;;;;13.90;8.07;;;;;;;12.04;51.46;99942.78;4883478;29;20032;-60
2021/10/30 04:52:24;;;;;;;13.98;7.68;;;;;;;12.04;51.40;99938.50;4883388;29;20140;-60
2021/10/30 04:54:54;;;;;;;19.17;8.30;;;;;;;12.03;51.43;99938.50;4879067;29;20094;-61
2021/10/30 04:57:23;;;;;;;13.63;8.02;;;;;;;11.97;51.59;99944.47;4876854;29;20049;-60
2021/10/30 04:59:55;;;;;;;13.45;8.13;;;;;;;11.96;51.85;99942.81;4890455;29;20057;-60
2021/10/30 05:02:27;;;;;;;14.07;8.63;;;;;;;11.93;51.73;99944.50;4882567;29;20518;-60
2021/10/30 05:04:57;;;;;;;16.63;9.07;;;;;;;11.82;52.09;99934.31;4887427;29;20093;-60
2021/10/30 05:07:30;;;;;;;17.70;8.95;;;;;;;11.78;52.50;99942.81;4887282;29;20044;-60
2021/10/30 05:09:59;;;;;;;13.98;7.30;;;;;;;11.61;52.60;99923.22;4891230;29;20135;-61
2021/10/30 05:12:30;;;;;;;14.57;8.00;;;;;;;11.65;52.73;99946.22;4882590;29;20048;-60
2021/10/30 05:15:02;;;;;;;14.38;7.70;;;;;;;11.60;53.02;99953.03;4880661;29;20139;-60
2021/10/30 05:17:37;;;;;;;14.38;8.80;;;;;;;11.63;53.27;99945.38;4887614;29;20124;-60
2021/10/30 05:20:07;;;;;;;13.93;8.13;;;;;;;11.62;53.31;99940.25;4881041;29;20097;-61
2021/10/30 05:22:41;;;;;;;12.38;7.80;;;;;;;11.70;53.29;99943.69;4882611;29;20064;-60
2021/10/30 05:25:13;;;;;;;18.60;8.82;;;;;;;11.64;53.42;99939.41;4881691;29;20064;-60
2021/10/30 05:27:43;;;;;;;15.85;8.52;;;;;;;11.66;53.69;99936.84;4883513;29;20140;-61
2021/10/30 05:30:13;;;;;;;15.32;7.40;;;;;;;11.68;53.56;99936.03;4894304;29;20089;-61
2021/10/30 05:32:45;;;;;;;14.13;7.60;;;;;;;11.65;53.54;99933.44;4883000;29;20057;-60
2021/10/30 05:35:25;;;;;;;15.25;8.50;;;;;;;11.67;53.70;99931.72;4885432;29;20054;-61
2021/10/30 05:38:06;;;;;;;17.85;8.10;;;;;;;11.59;54.19;99935.16;4882449;29;20053;-60
2021/10/30 05:40:36;;;;;;;15.15;8.38;;;;;;;11.56;54.20;99923.22;4880787;29;20598;-60
2021/10/30 05:43:08;;;;;;;14.02;7.55;;;;;;;11.55;54.28;99924.06;4899464;29;20120;-60
2021/10/30 05:45:41;;;;;;;15.52;8.18;;;;;;;11.55;54.38;99934.28;4885318;29;20100;-61
2021/10/30 05:48:13;;;;;;;15.60;8.63;;;;;;;11.54;54.77;99931.75;4891703;29;20055;-60
2021/10/30 05:50:43;;;;;;;16.05;8.18;;;;;;;11.58;54.34;99929.19;4885067;29;20045;-61
2021/10/30 05:53:16;;;;;;;14.18;7.72;;;;;;;11.59;54.75;99941.09;4883247;29;20045;-61
2021/10/30 05:55:46;;;;;;;13.88;7.82;;;;;;;11.66;54.68;99940.22;4895253;29;20068;-60
2021/10/30 05:58:18;;;;;;;13.25;7.97;;;;;;;11.62;54.92;99930.88;4883067;29;20083;-60
2021/10/30 06:00:47;;;;;;;13.63;7.72;;;;;;;11.71;54.71;99941.13;4881708;29;20097;-61
2021/10/30 06:03:20;;;;;;;15.27;8.65;;;;;;;11.72;54.66;99942.84;4890336;29;20049;-61
2021/10/30 06:05:49;;;;;;;14.57;8.02;;;;;;;11.68;54.88;99946.25;4891960;29;20080;-61
2021/10/30 06:08:23;;;;;;;13.32;7.95;;;;;;;11.75;54.92;99942.84;4881980;29;21597;-61
2021/10/30 06:10:55;;;;;;;14.20;8.43;;;;;;;11.84;54.78;99952.19;4888740;29;20140;-60
2021/10/30 06:13:28;;;;;;;14.00;8.63;;;;;;;11.79;54.79;99953.91;4891191;29;20079;-60
2021/10/30 06:15:57;;;;;;;15.70;8.15;;;;;;;11.88;54.90;99954.75;4887999;29;20496;-61
2021/10/30 06:18:27;;;;;;;10.57;6.63;;;;;;;11.93;54.80;99955.59;4882805;29;20048;-61
2021/10/30 06:20:56;;;;;;;13.97;8.27;;;;;;;12.03;54.83;99959.84;4892589;29;20056;-62
2021/10/30 06:23:27;;;;;;;15.60;8.15;;;;;;;12.08;54.48;99955.56;4887744;29;20037;-61
2021/10/30 06:26:00;;;;;;;13.50;7.57;;;;;;;12.16;54.30;99959.81;4885943;29;20448;-60
2021/10/30 06:28:32;;;;;;;12.60;7.82;;;;;;;12.04;54.47;99935.94;4881333;29;20132;-60
2021/10/30 06:31:01;;;;;;;17.40;8.50;;;;;;;12.11;54.34;99936.78;4881445;29;20503;-60
2021/10/30 06:33:31;;;;;;;13.30;7.82;;;;;;;12.30;54.32;99968.28;4881033;29;20045;-61
2021/10/30 06:36:00;;;;;;;17.58;8.43;;;;;;;12.26;54.24;99946.13;4884074;29;20049;-61
2021/10/30 06:38:31;;;;;;;10.00;5.97;;;;;;;12.48;54.09;99978.44;4886467;29;20492;-61
2021/10/30 06:41:01;;;;;;;15.68;7.80;;;;;;;12.54;53.80;99983.56;4879210;29;20323;-61
2021/10/30 06:43:30;;;;;;;12.82;7.28;;;;;;;12.56;53.78;99998.06;4866599;29;20474;-61
2021/10/30 06:46:00;;;;;;;14.93;7.72;;;;;;;12.62;53.58;99999.75;4883495;29;20080;-60
2021/10/30 06:48:30;;;;;;;11.75;7.65;;;;;;;12.64;53.66;100003.16;4881365;29;20037;-60
2021/10/30 06:51:00;;;;;;;14.20;8.00;;;;;;;12.69;53.68;99998.88;4880270;29;20453;-60
2021/10/30 06:53:30;;;;;;;12.15;7.20;;;;;;;12.72;53.61;99997.13;4883106;29;20041;-61
2021/10/30 06:56:00;;;;;;;14.88;8.23;;;;;;;12.75;53.65;99998.84;4880783;29;20045;-60
2021/10/30 06:58:30;;;;;;;14.65;8.00;;;;;;;12.86;53.52;99993.69;4880894;29;20136;-61
2021/10/30 07:00:59;;;;;;;;;;;;;;;12.90;53.38;99996.22;4889078;29;20045;-61
2021/10/30 07:03:30;;;;;;;14.50;8.40;;;;;;;12.92;53.29;99999.63;4879255;29;19979;-60
2021/10/30 07:06:02;;;;;;;10.85;6.90;;;;;;;12.95;53.67;100002.16;4884724;29;20045;-60
2021/10/30 07:08:33;;;;;;;13.52;7.45;;;;;;;13.02;53.63;99995.28;4889418;29;21146;-60
2021/10/30 07:11:02;;;;;;;13.90;6.68;;;;;;;13.08;53.37;99993.56;4879979;29;20124;-61
2021/10/30 07:13:34;;;;;;;13.38;7.55;;;;;;;13.05;53.26;99997.84;4879849;29;20071;-60
2021/10/30 07:16:06;;;;;;;12.05;6.53;;;;;;;13.03;53.32;99990.16;4879908;29;20185;-60
2021/10/30 07:18:35;;;;;;;13.23;7.63;;;;;;;13.03;53.25;99992.72;4879515;29;20068;-60
2021/10/30 07:21:08;;;;;;;14.40;7.38;;;;;;;13.16;53.22;100001.22;4885787;29;20045;-60
2021/10/30 07:23:38;;;;;;;14.32;7.68;;;;;;;13.21;53.17;100000.34;4879926;29;20068;-60
2021/10/30 07:26:08;;;;;;;13.20;8.10;;;;;;;13.29;53.20;100008.81;4885954;29;20044;-60
2021/10/30 07:28:41;;;;;;;12.82;7.63;;;;;;;13.33;53.23;100010.50;4882938;29;20136;-61
2021/10/30 07:31:11;;;;;;;13.23;7.63;;;;;;;13.40;52.86;100001.91;4880166;29;20056;-60
2021/10/30 07:33:43;;;;;;;11.13;7.18;;;;;;;13.46;52.71;100001.00;4880377;29;20061;-61
2021/10/30 07:36:15;;;;;;;12.50;7.50;;;;;;;13.51;52.89;100006.13;4880275;29;20049;-60
2021/10/30 07:38:49;;;;;;;13.30;8.07;;;;;;;13.55;52.51;100007.78;4880290;29;20140;-60
2021/10/30 07:41:21;;;;;;;13.80;7.25;;;;;;;13.62;52.60;100012.00;4880461;29;20057;-60
2021/10/30 07:43:54;;;;;;;13.52;7.80;;;;;;;13.68;52.74;100001.69;4880127;29;20048;-60
2021/10/30 07:46:26;;;;;;;13.75;8.23;;;;;;;13.76;52.57;99999.91;4880737;29;20064;-60
2021/10/30 07:48:59;;;;;;;13.55;7.75;;;;;;;13.91;52.19;100010.06;4880018;29;20055;-60
2021/10/30 07:51:28;;;;;;;11.00;6.22;;;;;;;14.04;52.01;100007.34;4880026;29;20072;-60
2021/10/30 07:54:02;;;;;;;16.23;7.40;;;;;;;13.87;52.16;99987.84;4880057;29;20052;-60
2021/10/30 07:56:34;;;;;;;9.95;5.65;;;;;;;14.05;51.61;100013.34;4879970;29;20287;-60
2021/10/30 07:59:10;;;;;;;14.15;8.00;;;;;;;14.08;51.89;100015.91;4880041;29;20061;-60
2021/10/30 08:01:40;;;;;;;13.00;7.65;;;;;;;14.14;51.80;100008.13;4880096;29;20053;-60
2021/10/30 08:04:14;;;;;;;14.23;7.50;;;;;;;14.24;51.54;100011.44;4880196;29;20052;-60
2021/10/30 08:06:44;;;;;;;14.57;6.97;;;;;;;14.32;51.43;100014.81;4879900;29;20064;-60
2021/10/30 08:09:17;;;;;;;10.90;6.97;;;;;;;14.39;51.37;100025.03;4880035;29;20552;-60
2021/10/30 08:11:47;;;;;;;12.95;7.47;;;;;;;14.35;51.04;100031.03;4879847;29;20074;-60
2021/10/30 08:14:19;;;;;;;12.13;7.07;;;;;;;14.30;51.33;100019.09;4880021;29;20041;-60
2021/10/30 08:16:48;;;;;;;11.82;7.22;;;;;;;14.40;51.26;100021.56;4879856;29;20045;-60
2021/10/30 08:19:21;;;;;;;12.75;6.85;;;;;;;14.55;51.15;100021.41;4879593;29;20060;-61
2021/10/30 08:21:56;;;;;;;16.10;7.72;;;;;;;14.59;51.58;100011.94;4879722;29;20049;-61
2021/10/30 08:24:30;;;;;;;11.07;7.15;;;;;;;14.52;51.50;100013.72;4880060;29;20044;-60
2021/10/30 08:27:00;;;;;;;11.35;6.63;;;;;;;14.59;51.03;100025.63;4879892;29;20504;-60
2021/10/30 08:29:32;;;;;;;14.13;7.47;;;;;;;14.61;50.97;100016.19;4879655;29;20136;-61
2021/10/30 08:32:01;;;;;;;13.10;6.90;;;;;;;14.72;50.93;100016.06;4879631;29;20055;-60
2021/10/30 08:34:31;;;;;;;13.13;7.20;;;;;;;14.81;50.70;100015.09;4879705;29;20476;-60
2021/10/30 08:37:01;;;;;;;11.00;6.90;;;;;;;14.85;50.81;100019.34;4879594;29;20053;-61
2021/10/30 08:39:36;;;;;;;12.75;7.13;;;;;;;14.83;50.86;100016.78;4879491;29;20106;-60
2021/10/30 08:42:12;;;;;;;14.23;7.18;;;;;;;14.87;50.71;100033.03;4882456;29;20052;-60
2021/10/30 08:44:44;;;;;;;13.55;7.28;;;;;;;14.86;50.60;100013.31;4883618;29;20506;-60
2021/10/30 08:47:14;;;;;;;12.40;7.55;;;;;;;14.94;50.85;100006.38;4883806;29;20053;-61
2021/10/30 08:49:47;;;;;;;11.20;6.97;;;;;;;15.00;50.33;100003.72;4883322;29;20045;-60
2021/10/30 08:52:16;;;;;;;10.75;6.28;;;;;;;15.05;50.06;99991.66;4880322;29;20092;-62
2021/10/30 08:54:50;;;;;;;10.88;7.18;;;;;;;15.22;50.23;100007.69;4888174;29;20040;-61
2021/10/30 08:57:21;;;;;;;13.05;6.30;;;;;;;15.17;49.58;100006.91;4883345;29;20514;-60
2021/10/30 08:59:53;;;;;;;12.63;6.68;;;;;;;15.14;49.71;100002.66;4884085;29;20041;-61
2021/10/30 09:02:29;;;;;;;13.40;7.57;;;;;;;15.17;49.67;100001.75;4901702;29;20052;-60
2021/10/30 09:05:10;;;;;;;12.68;7.20;;;;;;;15.19;49.32;100005.16;4889512;29;20041;-61
2021/10/30 09:07:40;;;;;;;10.40;6.55;;;;;;;15.28;49.40;99989.63;4898170;29;20053;-61
2021/10/30 09:10:13;;;;;;;15.05;6.80;;;;;;;15.47;49.34;100000.50;4893043;29;20139;-60
2021/10/30 09:12:50;;;;;;;11.60;7.00;;;;;;;15.66;48.90;99997.63;4880585;29;20056;-61
2021/10/30 09:15:29;;;;;;;7.35;5.00;;;;;;;15.72;49.04;100000.06;4882804;29;20085;-61
2021/10/30 09:18:03;;;;;;;12.85;6.90;;;;;;;15.84;48.65;99997.31;4895728;29;20040;-60
2021/10/30 09:20:34;;;;;;;12.13;6.47;;;;;;;15.77;48.00;99987.97;4892092;29;20057;-60
2021/10/30 09:23:04;;;;;;;11.82;6.50;;;;;;;15.77;48.60;100005.16;4894931;29;20055;-61
2021/10/30 09:25:50;;;;;;;;;;;;;;;15.84;48.40;99987.00;4880758;29;20057;-62
2021/10/30 09:28:24;;;;;;;17.33;7.47;;;;;;;15.99;48.25;99980.75;4882390;29;19930;-61
2021/10/30 09:31:01;;;;;;;11.40;6.75;;;;;;;16.06;48.35;99988.34;4881580;29;20517;-62
2021/10/30 09:33:31;;;;;;;11.07;6.45;;;;;;;16.02;47.78;99980.69;4882084;29;20104;-60
2021/10/30 09:36:10;;;;;;;11.27;6.78;;;;;;;16.10;47.79;99984.81;4882786;29;20041;-60
2021/10/30 09:38:41;;;;;;;11.37;7.03;;;;;;;16.09;48.00;99972.84;4882201;29;20068;-61
2021/10/30 09:41:26;;;;;;;13.13;6.75;;;;;;;16.23;48.13;99971.72;4881950;29;20052;-61
2021/10/30 09:43:58;;;;;;;11.02;6.18;;;;;;;16.15;47.96;99955.56;4881400;29;20057;-61
2021/10/30 09:46:29;;;;;;;13.32;6.93;;;;;;;16.30;48.06;99976.72;4886246;29;20045;-61
2021/10/30 09:49:00;;;;;;;9.77;6.88;;;;;;;16.34;48.16;99972.38;4889046;29;20108;-60
2021/10/30 09:51:34;;;;;;;12.88;6.93;;;;;;;16.45;47.49;99970.44;4882065;29;20077;-60
2021/10/30 09:54:06;;;;;;;11.70;6.93;;;;;;;16.51;47.58;99968.59;4877912;29;20041;-62
2021/10/30 09:56:48;;;;;;;9.88;6.03;;;;;;;16.53;47.43;99958.28;4880205;29;20052;-61
2021/10/30 09:59:18;;;;;;;10.73;6.65;;;;;;;16.61;47.19;99954.66;4884872;29;20071;-61
2021/10/30 10:01:49;;;;;;;9.70;6.35;;;;;;;16.88;47.29;99950.63;4885321;29;20109;-61
2021/10/30 10:04:20;;;;;;;12.32;7.07;;;;;;;16.87;47.05;99959.25;4884620;29;20075;-61
2021/10/30 10:06:50;;;;;;;11.93;6.82;;;;;;;16.86;46.69;99961.88;4882861;29;20495;-60
2021/10/30 10:09:20;;;;;;;13.90;6.53;;;;;;;16.99;46.96;99948.66;4881852;29;20407;-61
2021/10/30 10:11:53;;;;;;;10.98;6.97;;;;;;;16.95;46.80;99946.19;4881155;29;20140;-62
2021/10/30 10:14:23;;;;;;;12.52;6.28;;;;;;;17.07;46.74;99948.50;4890651;29;20071;-60
2021/10/30 10:16:54;;;;;;;12.15;6.38;;;;;;;17.13;46.32;99931.13;4890176;29;20049;-60
2021/10/30 10:19:24;;;;;;;12.48;5.80;;;;;;;17.11;46.17;99927.75;4892339;29;20057;-61
2021/10/30 10:21:56;;;;;;;13.70;5.72;;;;;;;17.30;45.95;99923.84;4886136;29;20044;-61
2021/10/30 10:24:30;;;;;;;8.68;4.97;;;;;;;17.42;46.01;99926.13;4884725;29;20049;-61
2021/10/30 10:27:02;;;;;;;9.45;5.88;;;;;;;17.52;45.35;99919.03;4881156;29;20052;-61
2021/10/30 10:29:34;;;;;;;9.13;5.82;;;;;;;17.69;45.43;99926.34;4887218;29;20044;-61
2021/10/30 10:32:06;;;;;;;11.48;4.85;;;;;;;17.58;45.04;99929.22;4881572;29;20049;-61
2021/10/30 10:34:36;;;;;;;9.20;5.13;;;;;;;17.52;44.92;99913.88;4877988;29;20123;-61
2021/10/30 10:37:20;;;;;;;13.07;5.95;;;;;;;17.59;45.19;99905.09;4882327;29;20044;-62
2021/10/30 10:39:54;;;;;;;10.55;5.78;;;;;;;17.51;44.84;99901.00;4888223;29;20558;-60
2021/10/30 10:42:43;;;;;;;8.63;5.20;;;;;;;17.51;45.09;99911.31;4881682;29;20096;-60
2021/10/30 10:45:16;;;;;;;9.35;5.43;;;;;;;17.43;44.84;99909.78;4882938;29;20136;-60
2021/10/30 10:47:58;;;;;;;10.00;5.18;;;;;;;17.32;44.78;99895.44;4880691;29;20057;-62
2021/10/30 10:50:34;;;;;;;10.55;5.45;;;;;;;17.29;44.92;99886.06;4892803;29;20045;-60
2021/10/30 10:53:25;;;;;;;8.48;5.00;;;;;;;17.38;44.69;99885.81;4879536;29;20044;-60
2021/10/30 10:56:09;;;;;;;9.77;5.57;;;;;;;17.51;44.69;99880.34;4881898;29;20384;-60
2021/10/30 10:59:12;;;;;;;8.70;4.95;;;;;;;17.70;44.62;99882.44;4886830;29;20049;-61
2021/10/30 11:02:11;;;;;;;9.68;5.55;;;;;;;17.86;44.44;99872.53;4888816;29;20048;-61
2021/10/30 11:04:42;;;;;;;9.35;5.35;;;;;;;17.90;44.08;99889.66;4849491;29;20194;-60
2021/10/30 11:07:19;;;;;;;8.93;5.30;;;;;;;17.87;43.72;99887.16;4880951;29;20073;-60
2021/10/30 11:10:02;;;;;;;10.02;5.63;;;;;;;17.95;43.47;99882.63;4882845;29;20068;-60
2021/10/30 11:12:38;;;;;;;10.18;5.50;;;;;;;17.62;43.71;99858.56;4880730;29;20404;-60
2021/10/30 11:15:09;;;;;;;10.18;5.63;;;;;;;17.81;44.07;99889.91;4879379;29;20065;-61
2021/10/30 11:17:48;;;;;;;8.32;5.40;;;;;;;17.71;43.68;99883.28;4880627;29;20060;-61
2021/10/30 11:20:20;;;;;;;12.73;6.40;;;;;;;17.60;44.00;99886.16;4886269;29;20049;-60
2021/10/30 11:23:00;;;;;;;9.52;4.88;;;;;;;17.48;44.51;99865.78;4896779;29;20053;-60
2021/10/30 11:25:31;;;;;;;8.60;5.55;;;;;;;17.55;44.43;99871.66;4885552;29;20074;-60
2021/10/30 11:28:01;;;;;;;9.10;5.85;;;;;;;17.76;44.35;99860.75;4881326;29;20111;-60
2021/10/30 11:30:35;;;;;;;10.57;5.88;;;;;;;17.89;44.41;99851.81;4880390;29;20057;-60
2021/10/30 11:33:20;;;;;;;10.32;5.70;;;;;;;17.89;44.15;99859.56;4880662;29;20105;-60
2021/10/30 11:35:59;;;;;;;9.40;6.10;;;;;;;17.90;44.18;99859.50;4879267;29;21070;-61
2021/10/30 11:38:35;;;;;;;9.65;4.85;;;;;;;17.74;44.51;99836.72;4880481;29;20061;-60
2021/10/30 11:41:05;;;;;;;8.75;5.50;;;;;;;17.90;44.31;99849.16;4880326;29;20063;-60
2021/10/30 11:43:36;;;;;;;8.75;5.90;;;;;;;17.97;44.27;99844.72;4880192;29;20080;-60
2021/10/30 11:46:08;;;;;;;11.75;5.95;;;;;;;18.05;44.23;99842.72;4880998;29;20104;-62
2021/10/30 11:48:39;;;;;;;10.82;6.30;;;;;;;17.99;44.14;99837.75;4882350;29;20053;-61
2021/10/30 11:51:11;;;;;;;9.00;5.30;;;;;;;17.95;44.16;99830.97;4881498;29;20560;-61